Knoxville, TN (37915)

8:18 PM EDT on September 27, 2016 (GMT -0400)
APRSWXNET | | Change Station

Elev 931 ft 35.99 °N, 83.92 °W | Updated 22 minutes ago

Partly Cloudy
Partly Cloudy
76 °F
Feels Like 78 °F
N
1
Wind Variable Wind from WSW
Gusts 3.0 mph

Today
High -- | Low -- °F
--% Chance of Precip.
Yesterday
High -- | Low -- °F
Precip. -- in
Pressure 29.87 in
Visibility 10.0 miles
Clouds Few 4000 ft
Few 11000 ft
Heat Index 78 °F
Dew Point 61 °F
Humidity 59%
Rainfall in
Snow Depth Not available.
7:27 AM 7:24 PM
Waning Crescent, 9% visible
METAR KTYS 272353Z 24003KT 10SM FEW040 FEW110 23/16 A2989 RMK AO2 SLP114 T02330156 10267 20233 55001
Pressure 29.87 in
Visibility 10.0 miles
Clouds Few 4000 ft
Few 11000 ft
Heat Index 78 °F
Dew Point 61 °F
Humidity 59%
Rainfall in
Snow Depth Not available.
7:27 AM 7:24 PM
Waning Crescent, 9% visible
METAR KTYS 272353Z 24003KT 10SM FEW040 FEW110 23/16 A2989 RMK AO2 SLP114 T02330156 10267 20233 55001

10-Day Weather Forecast

Almanac

Astronomy

Sep. 27, 2016 Rise Set
Actual Time
Civil Twilight
Nautical Twilight
Astronomical Twilight
Moon
Length of Visible Light
Length of Day
Tomorrow will be .
, % of the Moon is Illuminated

Today's Extremes

State Highs State Lows

Community

WunderPhotos

Upload Photos

1,942,179 photos uploaded!

WunderBlog® & News

Nearby

Air Quality

  Air Quality AQ Index Pollutant
Not available.

Snow Depth

Station Depth Elevation

Earthquake Activity

City Distance Mag. Time & Date
Minimum magnitude displayed is 2.5.

Coastal Water Temperatures

Place Temperature

Stations

Nearby Weather Stations

Station Location Temp. Windchill Dew Point Humidity Wind Precip. Elev Updated Type
                   

Watches & Warnings

There are currently no watches in effect.